createdAt,value
2019-04-14T00:02:31.879Z,3.88
2019-04-14T00:05:01.983Z,3.86
2019-04-14T00:07:30.466Z,3.89
2019-04-14T00:09:59.028Z,3.88
2019-04-14T00:12:27.523Z,3.87
2019-04-14T00:14:55.967Z,3.87
2019-04-14T00:17:24.406Z,3.86
2019-04-14T00:19:52.829Z,3.88
2019-04-14T00:22:21.240Z,3.86
2019-04-14T00:24:49.665Z,3.87
2019-04-14T00:27:19.206Z,3.87
2019-04-14T00:29:47.983Z,3.87
2019-04-14T00:32:16.402Z,3.87
2019-04-14T00:35:01.751Z,3.87
2019-04-14T00:37:31.899Z,3.89
2019-04-14T00:40:21.311Z,3.88
2019-04-14T00:42:53.984Z,3.87
2019-04-14T00:45:34.021Z,3.88
2019-04-14T00:48:03.379Z,3.84
2019-04-14T00:50:25.975Z,3.81
2019-04-14T00:52:54.548Z,3.80
2019-04-14T00:55:23.092Z,3.78
2019-04-14T00:57:51.475Z,3.75
2019-04-14T01:00:20.737Z,3.71
2019-04-14T01:02:51.492Z,3.70
2019-04-14T01:05:19.989Z,3.69
2019-04-14T01:07:48.421Z,3.64
2019-04-14T01:10:17.038Z,3.60
2019-04-14T01:12:45.483Z,3.57
2019-04-14T01:15:14.112Z,3.54
2019-04-14T01:17:43.781Z,3.55
2019-04-14T01:20:12.693Z,3.51
2019-04-14T01:22:42.327Z,3.52
2019-04-14T01:25:11.035Z,3.48
2019-04-14T01:27:40.559Z,3.44
2019-04-14T01:30:09.560Z,3.42
2019-04-14T01:32:37.946Z,3.37
2019-04-14T01:35:07.491Z,3.29
2019-04-14T01:37:35.921Z,3.31
2019-04-14T01:40:05.948Z,3.30
2019-04-14T01:42:35.523Z,3.27
2019-04-14T01:45:05.781Z,3.26
2019-04-14T01:47:34.172Z,3.26
2019-04-14T01:50:03.738Z,3.18
2019-04-14T01:52:34.164Z,3.19
2019-04-14T01:55:17.672Z,3.16
2019-04-14T01:57:50.592Z,3.13
2019-04-14T02:00:20.920Z,3.09
2019-04-14T02:02:49.283Z,3.10
2019-04-14T02:05:21.388Z,3.10
2019-04-14T02:07:49.815Z,3.06
2019-04-14T02:10:19.381Z,3.01
2019-04-14T02:12:47.806Z,3.00
2019-04-14T02:15:20.054Z,3.01
2019-04-14T02:55:30.005Z,2.68
2019-04-14T02:57:45.021Z,2.64
2019-04-14T03:00:23.915Z,2.64
2019-04-14T03:02:42.593Z,2.62
2019-04-14T03:10:29.863Z,2.54
2019-04-14T03:12:46.486Z,2.49
2019-04-14T03:15:17.061Z,2.46
2019-04-14T03:18:12.196Z,2.46
2019-04-14T03:20:33.996Z,2.47
2019-04-14T03:23:19.163Z,2.45
2019-04-14T03:25:43.289Z,2.41
2019-04-14T03:28:28.305Z,2.38
2019-04-14T03:31:31.663Z,2.38
2019-04-14T03:38:34.457Z,2.27
2019-04-14T03:41:08.713Z,2.26
2019-04-14T03:43:38.684Z,2.23
2019-04-14T03:46:09.139Z,2.20
2019-04-14T03:51:13.754Z,2.21
2019-04-14T03:55:55.506Z,2.09
2019-04-14T03:58:20.526Z,2.18
2019-04-14T04:00:49.281Z,2.15
2019-04-14T04:03:17.699Z,2.15
2019-04-14T04:05:46.104Z,2.10
2019-04-14T04:08:15.715Z,2.10
2019-04-14T04:10:51.225Z,1.99
2019-04-14T04:13:19.613Z,1.97
2019-04-14T04:15:49.752Z,1.95
2019-04-14T04:18:19.955Z,1.94
2019-04-14T04:20:52.593Z,1.97
2019-04-14T04:23:42.377Z,1.98
2019-04-14T04:26:12.676Z,1.97
2019-04-14T04:29:00.647Z,1.91
2019-04-14T04:31:37.407Z,1.85
2019-04-14T04:34:25.012Z,1.81
2019-04-14T04:37:04.042Z,1.79
2019-04-14T04:39:36.445Z,1.76
2019-04-14T04:42:04.821Z,1.74
2019-04-14T04:44:33.502Z,1.74
2019-04-14T04:47:01.872Z,1.72
2019-04-14T04:49:31.311Z,1.72
2019-04-14T04:52:00.377Z,1.71
2019-04-14T04:54:30.014Z,1.75
2019-04-14T04:56:58.447Z,1.75
2019-04-14T04:59:27.764Z,1.77
2019-04-14T05:01:56.147Z,1.76
2019-04-14T05:04:24.533Z,1.77
2019-04-14T05:07:01.545Z,1.77
2019-04-14T05:09:36.207Z,1.73
2019-04-14T05:12:10.994Z,1.67
2019-04-14T05:14:44.063Z,1.56
2019-04-14T05:17:14.813Z,1.56
2019-04-14T05:19:43.618Z,1.56
2019-04-14T05:22:14.802Z,1.57
2019-04-14T05:24:42.127Z,1.57
2019-04-14T05:27:10.531Z,1.60
2019-04-14T05:29:38.914Z,1.55
2019-04-14T05:32:07.297Z,1.55
2019-04-14T05:34:36.705Z,1.53
2019-04-14T05:37:05.285Z,1.56
2019-04-14T05:39:33.666Z,1.58
2019-04-14T05:42:09.471Z,1.60
2019-04-14T05:44:32.170Z,1.66
2019-04-14T05:47:00.558Z,1.73
2019-04-14T05:49:37.849Z,1.77
2019-04-14T05:51:59.211Z,1.83
2019-04-14T05:54:27.625Z,1.83
2019-04-14T05:56:56.010Z,1.88
2019-04-14T05:59:24.400Z,1.94
2019-04-14T06:01:52.797Z,1.93
2019-04-14T06:04:22.177Z,1.95
2019-04-14T06:06:50.551Z,1.97
2019-04-14T06:09:18.944Z,1.99
2019-04-14T06:11:47.340Z,1.95
2019-04-14T06:14:15.729Z,1.94
2019-04-14T06:16:44.116Z,2.01
2019-04-14T06:19:12.508Z,2.02
2019-04-14T06:21:40.905Z,2.01
2019-04-14T06:24:09.295Z,2.02
2019-04-14T06:26:37.821Z,2.03
2019-04-14T06:29:06.271Z,1.99
2019-04-14T06:31:39.319Z,2.00
2019-04-14T06:34:12.404Z,2.08
2019-04-14T06:36:42.392Z,2.14
2019-04-14T06:39:30.188Z,2.14
2019-04-14T06:41:58.574Z,2.12
2019-04-14T06:44:26.984Z,2.14
2019-04-14T06:46:55.386Z,2.18
2019-04-14T06:49:23.785Z,2.27
2019-04-14T06:51:52.173Z,2.32
2019-04-14T06:54:20.615Z,2.34
2019-04-14T06:56:49.038Z,2.37
2019-04-14T06:59:17.470Z,2.49
2019-04-14T07:01:45.859Z,2.59
2019-04-14T07:04:14.257Z,2.68
2019-04-14T07:06:42.640Z,2.79
2019-04-14T07:09:11.047Z,2.69
2019-04-14T07:11:39.437Z,2.96
2019-04-14T07:14:07.829Z,3.10
2019-04-14T07:16:36.284Z,3.30
2019-04-14T07:19:04.758Z,3.31
2019-04-14T07:21:33.152Z,3.45
2019-04-14T07:24:01.620Z,3.53
2019-04-14T07:26:30.016Z,3.66
2019-04-14T07:28:58.390Z,3.66
2019-04-14T07:31:37.187Z,3.67
2019-04-14T07:34:22.192Z,3.54
2019-04-14T07:36:58.400Z,3.67
2019-04-14T07:39:40.682Z,3.74
2019-04-14T07:42:22.334Z,3.90
2019-04-14T07:45:04.282Z,4.03
2019-04-14T07:47:40.362Z,4.17
2019-04-14T07:50:28.878Z,4.33
2019-04-14T07:52:58.913Z,4.17
2019-04-14T07:55:41.263Z,4.33
2019-04-14T07:58:27.831Z,4.23
2019-04-14T08:00:57.858Z,4.31
2019-04-14T08:03:27.921Z,4.30
2019-04-14T08:05:56.313Z,4.54
2019-04-14T08:08:24.704Z,4.65
2019-04-14T08:10:53.108Z,4.65
2019-04-14T08:13:21.498Z,4.78
2019-04-14T08:15:49.886Z,4.93
2019-04-14T08:18:18.311Z,5.02
2019-04-14T08:20:46.697Z,5.11
2019-04-14T08:23:15.079Z,5.15
2019-04-14T08:25:43.479Z,5.12
2019-04-14T08:28:11.860Z,5.15
2019-04-14T08:30:40.256Z,5.23
2019-04-14T08:33:08.639Z,5.26
2019-04-14T08:35:37.105Z,5.10
2019-04-14T08:38:05.494Z,5.14
2019-04-14T08:40:33.879Z,5.21
2019-04-14T08:43:21.920Z,5.30
2019-04-14T08:46:03.618Z,5.42
2019-04-14T08:48:48.643Z,5.41
2019-04-14T08:51:21.424Z,5.36
2019-04-14T08:54:03.524Z,5.50
2019-04-14T08:56:45.456Z,5.49
2019-04-14T08:59:31.593Z,5.60
2019-04-14T09:02:01.630Z,5.62
2019-04-14T09:04:31.666Z,5.75
2019-04-14T09:07:01.706Z,5.61
2019-04-14T09:09:31.740Z,5.52
2019-04-14T09:12:14.505Z,5.65
2019-04-14T09:14:31.911Z,5.71
2019-04-14T09:17:00.304Z,5.72
2019-04-14T09:19:28.696Z,5.75
2019-04-14T09:21:57.081Z,5.91
2019-04-14T09:24:25.471Z,5.92
2019-04-14T09:26:53.864Z,6.03
2019-04-14T09:29:22.283Z,6.09
2019-04-14T09:31:50.946Z,6.31
2019-04-14T09:34:19.347Z,6.22
2019-04-14T09:36:47.761Z,6.34
2019-04-14T09:39:16.143Z,6.34
2019-04-14T09:41:44.532Z,6.33
2019-04-14T09:44:12.924Z,6.32
2019-04-14T09:46:41.324Z,6.48
2019-04-14T09:49:09.779Z,6.44
2019-04-14T09:51:38.173Z,6.28
2019-04-14T09:54:07.526Z,6.32
2019-04-14T09:56:35.923Z,6.33
2019-04-14T09:59:04.379Z,6.36
2019-04-14T10:01:32.775Z,6.41
2019-04-14T10:04:01.176Z,6.46
2019-04-14T10:06:30.539Z,6.43
2019-04-14T10:08:58.927Z,6.55
2019-04-14T10:11:28.215Z,6.62
2019-04-14T10:13:56.627Z,6.56
2019-04-14T10:16:25.005Z,6.63
2019-04-14T10:18:53.391Z,6.77
2019-04-14T10:21:21.779Z,6.86
2019-04-14T10:23:50.174Z,6.85
2019-04-14T10:26:19.519Z,6.97
2019-04-14T10:28:50.817Z,6.98
2019-04-14T10:31:19.422Z,7.13
2019-04-14T10:33:47.816Z,7.08
2019-04-14T10:36:16.198Z,7.16
2019-04-14T10:38:44.583Z,7.30
2019-04-14T10:41:12.989Z,7.40
2019-04-14T10:43:41.402Z,7.48
2019-04-14T10:46:09.780Z,7.50
2019-04-14T10:48:38.205Z,7.41
2019-04-14T10:51:06.588Z,7.62
2019-04-14T10:53:35.008Z,7.46
2019-04-14T10:56:03.387Z,7.50
2019-04-14T10:58:31.780Z,7.46
2019-04-14T11:01:00.169Z,7.43
2019-04-14T11:03:28.558Z,7.47
2019-04-14T11:06:04.789Z,7.51
2019-04-14T11:08:33.190Z,7.58
2019-04-14T11:11:01.581Z,7.64
2019-04-14T11:13:29.967Z,7.82
2019-04-14T11:15:58.369Z,7.87
2019-04-14T11:18:26.751Z,7.90
2019-04-14T11:20:55.144Z,7.89
2019-04-14T11:23:23.535Z,7.87
2019-04-14T11:25:51.924Z,7.86
2019-04-14T11:28:20.317Z,7.88
2019-04-14T11:30:48.772Z,8.00
2019-04-14T11:33:18.810Z,8.02
2019-04-14T11:36:00.757Z,8.05
2019-04-14T11:38:30.784Z,8.09
2019-04-14T11:41:03.464Z,8.07
2019-04-14T11:43:31.849Z,8.29
2019-04-14T11:46:03.558Z,8.41
2019-04-14T11:48:31.636Z,8.44
2019-04-14T11:51:00.028Z,8.30
2019-04-14T11:53:28.483Z,8.22
2019-04-14T11:55:56.876Z,8.34
2019-04-14T11:58:25.276Z,8.32
2019-04-14T12:01:13.589Z,8.34
2019-04-14T12:03:43.687Z,8.46
2019-04-14T12:06:19.460Z,8.08
2019-04-14T12:08:49.486Z,8.26
2019-04-14T12:11:17.887Z,8.19
2019-04-14T12:13:46.273Z,8.37
2019-04-14T12:16:14.688Z,8.44
2019-04-14T12:18:43.153Z,8.40
2019-04-14T12:21:11.548Z,8.35
2019-04-14T12:23:39.960Z,8.25
2019-04-14T12:26:08.404Z,8.40
2019-04-14T12:28:38.234Z,8.27
2019-04-14T12:31:08.630Z,8.40
2019-04-14T12:33:37.166Z,8.55
2019-04-14T12:36:08.611Z,8.72
2019-04-14T12:38:37.123Z,8.75
2019-04-14T12:41:08.232Z,8.81
2019-04-14T12:43:38.410Z,8.79
2019-04-14T12:46:24.494Z,8.81
2019-04-14T12:48:56.945Z,8.94
2019-04-14T12:51:41.908Z,9.10
2019-04-14T12:54:10.294Z,9.18
2019-04-14T12:56:38.697Z,9.14
2019-04-14T12:59:08.829Z,9.04
2019-04-14T13:01:38.864Z,9.01
2019-04-14T13:04:07.252Z,9.01
2019-04-14T13:06:35.771Z,8.91
2019-04-14T13:09:08.250Z,8.98
2019-04-14T13:11:36.711Z,9.13
2019-04-14T13:14:05.110Z,9.22
2019-04-14T13:16:33.508Z,9.19
2019-04-14T13:19:02.035Z,9.31
2019-04-14T13:21:30.437Z,9.30
2019-04-14T13:23:58.887Z,9.36
2019-04-14T13:26:27.293Z,9.31
2019-04-14T13:28:55.684Z,9.51
2019-04-14T13:31:24.161Z,9.65
2019-04-14T13:33:54.887Z,9.72
2019-04-14T13:36:22.952Z,9.70
2019-04-14T13:38:51.343Z,9.73
2019-04-14T13:41:19.759Z,9.58
2019-04-14T13:43:48.141Z,9.56
2019-04-14T13:46:16.532Z,9.42
2019-04-14T13:48:44.919Z,9.43
2019-04-14T13:51:13.345Z,9.32
2019-04-14T13:53:41.743Z,9.24
2019-04-14T13:56:10.147Z,9.15
2019-04-14T13:58:40.799Z,9.12
2019-04-14T14:01:08.641Z,8.99
2019-04-14T14:03:37.034Z,9.07
2019-04-14T14:06:05.491Z,9.08
2019-04-14T14:08:33.960Z,8.98
2019-04-14T14:11:03.991Z,9.15
2019-04-14T14:13:34.026Z,9.20
2019-04-14T14:16:07.244Z,9.10
2019-04-14T14:18:37.275Z,9.16
2019-04-14T14:21:10.352Z,9.08
2019-04-14T14:23:55.194Z,8.98
2019-04-14T14:26:27.906Z,8.87
2019-04-14T14:28:56.314Z,8.84
2019-04-14T14:31:24.873Z,8.88
2019-04-14T14:33:53.261Z,8.85
2019-04-14T14:36:22.597Z,8.92
2019-04-14T14:38:50.998Z,9.02
2019-04-14T14:41:19.379Z,9.12
2019-04-14T14:43:47.778Z,9.22
2019-04-14T14:46:17.850Z,9.28
2019-04-14T14:48:47.826Z,9.36
2019-04-14T14:51:29.455Z,9.34
2019-04-14T14:53:57.846Z,9.32
2019-04-14T14:56:27.227Z,9.24
2019-04-14T14:58:55.614Z,9.19
2019-04-14T15:01:24.004Z,9.07
2019-04-14T15:03:52.400Z,9.07
2019-04-14T15:06:20.792Z,9.16
2019-04-14T15:08:49.184Z,9.15
2019-04-14T15:11:17.576Z,9.28
2019-04-14T15:13:45.967Z,9.31
2019-04-14T15:16:14.363Z,9.21
2019-04-14T15:18:42.754Z,9.35
2019-04-14T15:21:11.146Z,9.17
2019-04-14T15:23:39.545Z,9.18
2019-04-14T15:26:07.937Z,9.21
2019-04-14T15:28:36.321Z,9.20
2019-04-14T15:31:04.739Z,9.35
2019-04-14T15:33:33.129Z,9.30
2019-04-14T15:36:01.528Z,9.24
2019-04-14T15:38:29.911Z,8.95
2019-04-14T15:40:58.380Z,9.29
2019-04-14T15:43:26.770Z,9.31
2019-04-14T15:45:55.162Z,9.40
2019-04-14T15:48:23.554Z,9.43
2019-04-14T15:50:51.952Z,9.40
2019-04-14T15:53:20.340Z,9.38
2019-04-14T15:55:48.745Z,9.44
2019-04-14T16:01:26.133Z,9.27
2019-04-14T16:03:58.567Z,9.11
2019-04-14T16:06:39.738Z,9.02
2019-04-14T16:09:12.447Z,8.97
2019-04-14T16:11:51.641Z,8.87
2019-04-14T16:14:21.663Z,8.82
2019-04-14T16:16:57.803Z,8.85
2019-04-14T16:19:45.841Z,8.84
2019-04-14T16:22:14.229Z,8.69
2019-04-14T16:24:42.624Z,8.16
2019-04-14T16:27:21.362Z,8.54
2019-04-14T16:29:53.799Z,8.56
2019-04-14T16:32:23.839Z,8.56
2019-04-14T16:34:53.870Z,8.42
2019-04-14T16:37:22.267Z,8.38
2019-04-14T16:39:50.651Z,8.39
2019-04-14T16:42:19.114Z,8.46
2019-04-14T16:44:47.515Z,8.46
2019-04-14T16:47:15.899Z,8.35
2019-04-14T16:49:44.283Z,8.20
2019-04-14T16:52:14.875Z,8.30
2019-04-14T16:54:47.874Z,8.31
2019-04-14T16:57:34.086Z,8.28
2019-04-14T17:00:02.839Z,8.18
2019-04-14T17:02:31.283Z,8.12
2019-04-14T17:04:59.670Z,8.13
2019-04-14T17:07:28.067Z,8.02
2019-04-14T17:09:56.443Z,7.98
2019-04-14T17:12:24.830Z,7.98
2019-04-14T17:14:54.881Z,7.82
2019-04-14T17:17:25.008Z,7.83
2019-04-14T17:19:57.188Z,7.82
2019-04-14T17:22:26.840Z,7.78
2019-04-14T17:25:08.486Z,7.73
2019-04-14T17:27:50.597Z,7.73
2019-04-14T17:30:23.689Z,7.68
2019-04-14T17:32:59.409Z,7.66
2019-04-14T17:35:44.571Z,7.56
2019-04-14T17:38:17.568Z,7.54
2019-04-14T17:40:47.592Z,7.48
2019-04-14T17:43:23.557Z,7.43
2019-04-14T17:46:09.446Z,7.33
2019-04-14T17:48:54.315Z,7.35
2019-04-14T17:51:27.112Z,7.36
2019-04-14T17:54:00.119Z,7.28
2019-04-14T17:56:35.859Z,7.20
2019-04-14T17:59:05.883Z,7.15
2019-04-14T18:01:41.962Z,7.17
2019-04-14T18:04:26.903Z,7.11
2019-04-14T18:07:06.063Z,7.13
2019-04-14T18:09:36.097Z,7.08
2019-04-14T18:12:09.287Z,7.03
2019-04-14T18:14:42.034Z,6.96
2019-04-14T18:17:12.062Z,6.92
2019-04-14T18:19:57.499Z,6.89
2019-04-14T18:22:25.872Z,6.88
2019-04-14T18:24:54.264Z,6.86
2019-04-14T18:27:22.650Z,6.83
2019-04-14T18:29:52.683Z,6.81
2019-04-14T18:32:34.358Z,6.79
2019-04-14T18:35:13.268Z,6.68
2019-04-14T18:37:59.434Z,6.67
2019-04-14T18:40:35.483Z,6.65
2019-04-14T18:43:05.584Z,6.63
2019-04-14T18:45:35.610Z,6.61
2019-04-14T18:48:14.871Z,6.59
2019-04-14T18:50:44.953Z,6.59
2019-04-14T18:53:30.856Z,6.57
2019-04-14T18:56:11.213Z,6.55
2019-04-14T18:59:00.972Z,6.09
2019-04-14T19:01:31.005Z,6.47
2019-04-14T19:04:02.241Z,6.46
2019-04-14T19:06:30.430Z,6.51
2019-04-14T19:08:58.824Z,6.45
2019-04-14T19:11:37.631Z,6.43
2019-04-14T19:14:07.751Z,6.41
2019-04-14T19:16:40.538Z,6.39
2019-04-14T19:19:10.287Z,6.39
2019-04-14T19:21:38.679Z,6.32
2019-04-14T19:24:07.073Z,6.27
2019-04-14T19:26:35.478Z,6.25
2019-04-14T19:29:03.872Z,6.23
2019-04-14T19:31:33.261Z,6.24
2019-04-14T19:34:01.657Z,6.20
2019-04-14T19:36:30.043Z,6.20
2019-04-14T19:38:58.426Z,6.20
2019-04-14T19:41:26.824Z,6.23
2019-04-14T19:43:55.204Z,6.21
2019-04-14T19:46:23.598Z,6.22
2019-04-14T19:48:52.089Z,6.19
2019-04-14T19:51:20.441Z,6.20
2019-04-14T19:53:48.856Z,6.22
2019-04-14T19:56:17.282Z,6.22
2019-04-14T19:58:46.665Z,6.20
2019-04-14T20:01:15.127Z,6.19
2019-04-14T20:03:44.576Z,6.16
2019-04-14T20:06:12.972Z,6.13
2019-04-14T20:08:41.361Z,6.12
2019-04-14T20:11:09.751Z,6.11
2019-04-14T20:13:39.786Z,5.45
2019-04-14T20:16:26.361Z,6.13
2019-04-14T20:19:10.362Z,6.13
2019-04-14T20:21:45.282Z,6.11
2019-04-14T20:24:18.200Z,6.09
2019-04-14T20:26:50.917Z,6.05
2019-04-14T20:29:20.942Z,6.03
2019-04-14T20:31:51.950Z,5.97
2019-04-14T20:34:20.342Z,5.97
2019-04-14T20:36:48.728Z,5.96
2019-04-14T20:39:18.294Z,5.83
2019-04-14T20:41:46.769Z,5.93
2019-04-14T20:44:15.606Z,5.84
2019-04-14T20:46:44.068Z,5.81
2019-04-14T20:49:12.591Z,5.71
2019-04-14T20:51:40.977Z,5.69
2019-04-14T20:54:09.363Z,5.70
2019-04-14T20:56:37.828Z,5.73
2019-04-14T20:59:06.246Z,5.73
2019-04-14T21:01:36.279Z,5.69
2019-04-14T21:04:18.639Z,5.66
2019-04-14T21:07:04.912Z,5.63
2019-04-14T21:09:37.867Z,5.66
2019-04-14T21:12:13.800Z,5.66
2019-04-14T21:14:59.908Z,5.62
2019-04-14T21:17:38.616Z,5.56
2019-04-14T21:20:32.602Z,5.56
2019-04-14T21:23:05.339Z,5.54
2019-04-14T21:25:35.373Z,5.52
2019-04-14T21:28:23.877Z,5.49
2019-04-14T21:31:10.567Z,5.46
2019-04-14T21:33:49.505Z,5.45
2019-04-14T21:36:25.390Z,5.46
2019-04-14T21:39:11.844Z,5.49
2019-04-14T21:41:41.879Z,5.48
2019-04-14T21:44:10.279Z,5.48
2019-04-14T21:46:38.669Z,5.48
2019-04-14T21:49:07.059Z,5.49
2019-04-14T21:51:48.945Z,5.50
2019-04-14T21:54:18.114Z,5.49
2019-04-14T21:56:48.161Z,5.44
2019-04-14T21:59:24.421Z,5.41
2019-04-14T22:02:11.091Z,5.38
2019-04-14T22:04:41.193Z,5.34
2019-04-14T22:07:23.029Z,5.32
2019-04-14T22:09:52.588Z,5.35
2019-04-14T22:12:20.980Z,5.30
2019-04-14T22:14:49.369Z,5.29
2019-04-14T22:17:17.760Z,5.26
2019-04-14T22:19:46.155Z,5.29
2019-04-14T22:22:14.538Z,5.30
2019-04-14T22:24:43.096Z,5.32
2019-04-14T22:27:11.526Z,5.32
2019-04-14T22:29:39.873Z,5.36
2019-04-14T22:32:08.261Z,5.37
2019-04-14T22:34:36.715Z,5.34
2019-04-14T22:37:05.181Z,5.35
2019-04-14T22:39:33.574Z,5.36
2019-04-14T22:42:01.962Z,5.37
2019-04-14T22:44:30.428Z,5.37
2019-04-14T22:46:58.819Z,5.38
2019-04-14T22:49:27.216Z,5.40
2019-04-14T22:51:55.593Z,5.38
2019-04-14T22:54:24.027Z,5.38
2019-04-14T22:56:52.414Z,5.40
2019-04-14T22:59:20.810Z,5.40
2019-04-14T23:01:50.835Z,5.41
2019-04-14T23:04:29.485Z,5.43
2019-04-14T23:06:59.521Z,5.40
2019-04-14T23:09:29.549Z,5.43
2019-04-14T23:12:05.371Z,5.42
2019-04-14T23:14:35.408Z,5.41
2019-04-14T23:17:14.375Z,5.43
2019-04-14T23:19:56.346Z,5.43
2019-04-14T23:22:29.115Z,5.45
2019-04-14T23:24:57.506Z,5.47
2019-04-14T23:27:25.964Z,5.50
2019-04-14T23:29:54.354Z,5.50
2019-04-14T23:32:22.747Z,5.52
2019-04-14T23:34:51.127Z,5.52
2019-04-14T23:37:19.514Z,5.53
2019-04-14T23:39:47.914Z,5.54
2019-04-14T23:42:16.310Z,5.54
2019-04-14T23:44:44.699Z,5.53
2019-04-14T23:47:13.170Z,5.55
2019-04-14T23:49:41.557Z,5.57
2019-04-14T23:52:09.941Z,5.54
2019-04-14T23:54:38.404Z,5.51
2019-04-14T23:57:06.978Z,5.48
2019-04-14T23:59:35.361Z,5.49
